sensor_id;sensor_type;location;lat;lon;timestamp;P1;durP1;ratioP1;P2;durP2;ratioP2
34902;SDS011;21114;44.840;0.214;2023-02-28T00:01:42;5.03;;;3.22;;
34902;SDS011;21114;44.840;0.214;2023-02-28T00:04:08;4.75;;;3.33;;
34902;SDS011;21114;44.840;0.214;2023-02-28T00:06:34;5.05;;;3.50;;
34902;SDS011;21114;44.840;0.214;2023-02-28T00:09:00;5.65;;;4.82;;
34902;SDS011;21114;44.840;0.214;2023-02-28T00:11:26;4.63;;;3.72;;
34902;SDS011;21114;44.840;0.214;2023-02-28T00:13:52;5.03;;;3.50;;
34902;SDS011;21114;44.840;0.214;2023-02-28T00:16:19;7.18;;;4.35;;
34902;SDS011;21114;44.840;0.214;2023-02-28T00:19:34;6.50;;;4.95;;
34902;SDS011;21114;44.840;0.214;2023-02-28T00:22:00;6.65;;;4.22;;
34902;SDS011;21114;44.840;0.214;2023-02-28T00:24:26;5.53;;;3.95;;
34902;SDS011;21114;44.840;0.214;2023-02-28T00:26:52;5.63;;;3.53;;
34902;SDS011;21114;44.840;0.214;2023-02-28T00:29:18;4.53;;;3.53;;
34902;SDS011;21114;44.840;0.214;2023-02-28T00:31:44;6.07;;;3.47;;
34902;SDS011;21114;44.840;0.214;2023-02-28T00:34:10;6.80;;;4.35;;
34902;SDS011;21114;44.840;0.214;2023-02-28T00:36:36;6.05;;;4.05;;
34902;SDS011;21114;44.840;0.214;2023-02-28T00:39:03;4.65;;;4.00;;
34902;SDS011;21114;44.840;0.214;2023-02-28T00:41:29;8.70;;;4.15;;
34902;SDS011;21114;44.840;0.214;2023-02-28T00:43:55;9.48;;;4.22;;
34902;SDS011;21114;44.840;0.214;2023-02-28T00:46:21;14.48;;;4.53;;
34902;SDS011;21114;44.840;0.214;2023-02-28T00:48:47;3.83;;;3.40;;
34902;SDS011;21114;44.840;0.214;2023-02-28T00:51:13;5.63;;;4.00;;
34902;SDS011;21114;44.840;0.214;2023-02-28T00:53:39;6.05;;;3.50;;
34902;SDS011;21114;44.840;0.214;2023-02-28T00:56:05;4.32;;;3.00;;
34902;SDS011;21114;44.840;0.214;2023-02-28T00:58:32;4.28;;;3.53;;
34902;SDS011;21114;44.840;0.214;2023-02-28T01:00:58;5.90;;;4.10;;
34902;SDS011;21114;44.840;0.214;2023-02-28T01:03:24;5.60;;;4.38;;
34902;SDS011;21114;44.840;0.214;2023-02-28T01:05:50;5.22;;;4.10;;
34902;SDS011;21114;44.840;0.214;2023-02-28T01:08:18;7.80;;;4.70;;
34902;SDS011;21114;44.840;0.214;2023-02-28T01:10:44;5.30;;;4.05;;
34902;SDS011;21114;44.840;0.214;2023-02-28T01:13:10;4.55;;;3.72;;
34902;SDS011;21114;44.840;0.214;2023-02-28T01:16:25;7.20;;;5.15;;
34902;SDS011;21114;44.840;0.214;2023-02-28T01:18:51;6.45;;;4.10;;
34902;SDS011;21114;44.840;0.214;2023-02-28T01:21:18;4.93;;;3.58;;
34902;SDS011;21114;44.840;0.214;2023-02-28T01:23:57;6.18;;;4.57;;
34902;SDS011;21114;44.840;0.214;2023-02-28T01:26:38;6.80;;;5.30;;
34902;SDS011;21114;44.840;0.214;2023-02-28T01:29:04;7.22;;;3.92;;
34902;SDS011;21114;44.840;0.214;2023-02-28T01:31:30;7.55;;;4.55;;
34902;SDS011;21114;44.840;0.214;2023-02-28T01:33:56;3.65;;;3.30;;
34902;SDS011;21114;44.840;0.214;2023-02-28T01:36:23;5.20;;;4.28;;
34902;SDS011;21114;44.840;0.214;2023-02-28T01:39:08;5.88;;;4.55;;
34902;SDS011;21114;44.840;0.214;2023-02-28T01:41:35;6.07;;;4.55;;
34902;SDS011;21114;44.840;0.214;2023-02-28T01:44:05;7.97;;;4.90;;
34902;SDS011;21114;44.840;0.214;2023-02-28T01:46:51;5.68;;;4.20;;
34902;SDS011;21114;44.840;0.214;2023-02-28T01:49:17;4.82;;;3.22;;
34902;SDS011;21114;44.840;0.214;2023-02-28T01:52:32;5.90;;;4.93;;
34902;SDS011;21114;44.840;0.214;2023-02-28T01:54:59;5.10;;;4.13;;
34902;SDS011;21114;44.840;0.214;2023-02-28T01:57:56;6.30;;;4.60;;
34902;SDS011;21114;44.840;0.214;2023-02-28T02:00:48;5.80;;;4.50;;
34902;SDS011;21114;44.840;0.214;2023-02-28T02:03:15;5.82;;;4.55;;
34902;SDS011;21114;44.840;0.214;2023-02-28T02:06:33;8.10;;;5.20;;
34902;SDS011;21114;44.840;0.214;2023-02-28T02:09:48;6.10;;;5.15;;
34902;SDS011;21114;44.840;0.214;2023-02-28T02:17:46;6.30;;;4.85;;
34902;SDS011;21114;44.840;0.214;2023-02-28T02:29:08;7.53;;;5.25;;
34902;SDS011;21114;44.840;0.214;2023-02-28T02:43:45;8.38;;;5.00;;
34902;SDS011;21114;44.840;0.214;2023-02-28T02:47:04;7.97;;;4.63;;
34902;SDS011;21114;44.840;0.214;2023-02-28T02:50:18;6.88;;;5.70;;
34902;SDS011;21114;44.840;0.214;2023-02-28T02:53:37;6.72;;;4.32;;
34902;SDS011;21114;44.840;0.214;2023-02-28T02:56:55;5.55;;;4.43;;
34902;SDS011;21114;44.840;0.214;2023-02-28T03:00:07;6.65;;;4.68;;
34902;SDS011;21114;44.840;0.214;2023-02-28T03:03:23;5.15;;;3.97;;
34902;SDS011;21114;44.840;0.214;2023-02-28T03:05:54;6.40;;;3.97;;
34902;SDS011;21114;44.840;0.214;2023-02-28T03:08:34;8.27;;;4.57;;
34902;SDS011;21114;44.840;0.214;2023-02-28T03:11:35;12.75;;;4.50;;
34902;SDS011;21114;44.840;0.214;2023-02-28T03:17:48;6.35;;;4.70;;
34902;SDS011;21114;44.840;0.214;2023-02-28T03:23:27;7.13;;;5.35;;
34902;SDS011;21114;44.840;0.214;2023-02-28T03:26:45;7.18;;;4.72;;
34902;SDS011;21114;44.840;0.214;2023-02-28T03:30:05;6.45;;;4.68;;
34902;SDS011;21114;44.840;0.214;2023-02-28T03:33:23;7.13;;;4.97;;
34902;SDS011;21114;44.840;0.214;2023-02-28T03:36:41;5.25;;;4.05;;
34902;SDS011;21114;44.840;0.214;2023-02-28T03:40:00;5.00;;;4.10;;
34902;SDS011;21114;44.840;0.214;2023-02-28T03:42:28;5.45;;;4.35;;
34902;SDS011;21114;44.840;0.214;2023-02-28T03:45:21;5.05;;;3.83;;
34902;SDS011;21114;44.840;0.214;2023-02-28T03:50:52;6.10;;;3.25;;
34902;SDS011;21114;44.840;0.214;2023-02-28T03:54:11;3.95;;;3.30;;
34902;SDS011;21114;44.840;0.214;2023-02-28T03:57:00;5.85;;;4.15;;
34902;SDS011;21114;44.840;0.214;2023-02-28T04:00:20;5.65;;;4.25;;
34902;SDS011;21114;44.840;0.214;2023-02-28T04:03:23;6.20;;;4.60;;
34902;SDS011;21114;44.840;0.214;2023-02-28T04:05:50;5.55;;;4.95;;
34902;SDS011;21114;44.840;0.214;2023-02-28T04:09:06;5.72;;;3.90;;
34902;SDS011;21114;44.840;0.214;2023-02-28T04:12:20;6.32;;;4.50;;
34902;SDS011;21114;44.840;0.214;2023-02-28T04:14:48;5.90;;;4.50;;
34902;SDS011;21114;44.840;0.214;2023-02-28T04:17:14;7.85;;;5.03;;
34902;SDS011;21114;44.840;0.214;2023-02-28T04:19:40;5.03;;;3.72;;
34902;SDS011;21114;44.840;0.214;2023-02-28T04:22:07;7.28;;;4.40;;
34902;SDS011;21114;44.840;0.214;2023-02-28T04:25:22;4.07;;;3.25;;
34902;SDS011;21114;44.840;0.214;2023-02-28T04:27:48;5.55;;;4.05;;
34902;SDS011;21114;44.840;0.214;2023-02-28T04:30:14;5.65;;;3.92;;
34902;SDS011;21114;44.840;0.214;2023-02-28T04:32:40;4.30;;;3.10;;
34902;SDS011;21114;44.840;0.214;2023-02-28T04:35:07;6.90;;;3.95;;
34902;SDS011;21114;44.840;0.214;2023-02-28T04:37:33;5.25;;;3.30;;
34902;SDS011;21114;44.840;0.214;2023-02-28T04:40:02;6.88;;;3.95;;
34902;SDS011;21114;44.840;0.214;2023-02-28T04:43:17;6.43;;;4.88;;
34902;SDS011;21114;44.840;0.214;2023-02-28T04:45:43;5.38;;;4.20;;
34902;SDS011;21114;44.840;0.214;2023-02-28T04:48:09;5.15;;;3.58;;
34902;SDS011;21114;44.840;0.214;2023-02-28T04:50:35;4.30;;;3.50;;
34902;SDS011;21114;44.840;0.214;2023-02-28T04:53:01;7.40;;;4.40;;
34902;SDS011;21114;44.840;0.214;2023-02-28T04:55:27;4.60;;;4.03;;
34902;SDS011;21114;44.840;0.214;2023-02-28T04:57:53;6.38;;;3.95;;
34902;SDS011;21114;44.840;0.214;2023-02-28T05:00:19;5.50;;;3.70;;
34902;SDS011;21114;44.840;0.214;2023-02-28T05:02:45;6.78;;;4.00;;
34902;SDS011;21114;44.840;0.214;2023-02-28T05:05:11;4.50;;;3.65;;
34902;SDS011;21114;44.840;0.214;2023-02-28T05:07:43;4.53;;;3.30;;
34902;SDS011;21114;44.840;0.214;2023-02-28T05:10:09;4.53;;;3.78;;
34902;SDS011;21114;44.840;0.214;2023-02-28T05:13:01;5.53;;;3.05;;
34902;SDS011;21114;44.840;0.214;2023-02-28T05:15:28;4.13;;;2.83;;
34902;SDS011;21114;44.840;0.214;2023-02-28T05:17:54;4.18;;;2.92;;
34902;SDS011;21114;44.840;0.214;2023-02-28T05:20:20;4.15;;;2.95;;
34902;SDS011;21114;44.840;0.214;2023-02-28T05:22:46;6.10;;;3.83;;
34902;SDS011;21114;44.840;0.214;2023-02-28T05:25:15;6.15;;;4.25;;
34902;SDS011;21114;44.840;0.214;2023-02-28T05:28:30;9.85;;;5.72;;
34902;SDS011;21114;44.840;0.214;2023-02-28T05:30:56;7.90;;;5.15;;
34902;SDS011;21114;44.840;0.214;2023-02-28T05:33:22;7.78;;;5.07;;
34902;SDS011;21114;44.840;0.214;2023-02-28T05:35:48;7.57;;;4.47;;
34902;SDS011;21114;44.840;0.214;2023-02-28T05:38:14;8.00;;;4.72;;
34902;SDS011;21114;44.840;0.214;2023-02-28T05:40:42;6.72;;;4.78;;
34902;SDS011;21114;44.840;0.214;2023-02-28T05:43:09;8.00;;;5.38;;
34902;SDS011;21114;44.840;0.214;2023-02-28T05:46:08;4.93;;;3.67;;
34902;SDS011;21114;44.840;0.214;2023-02-28T05:49:03;6.85;;;4.47;;
34902;SDS011;21114;44.840;0.214;2023-02-28T05:52:15;8.63;;;5.72;;
34902;SDS011;21114;44.840;0.214;2023-02-28T05:54:42;3.97;;;3.55;;
34902;SDS011;21114;44.840;0.214;2023-02-28T05:57:08;6.63;;;3.47;;
34902;SDS011;21114;44.840;0.214;2023-02-28T05:59:34;5.60;;;3.38;;
34902;SDS011;21114;44.840;0.214;2023-02-28T06:02:04;4.55;;;3.28;;
34902;SDS011;21114;44.840;0.214;2023-02-28T06:04:30;3.88;;;3.05;;
34902;SDS011;21114;44.840;0.214;2023-02-28T06:06:57;5.28;;;3.45;;
34902;SDS011;21114;44.840;0.214;2023-02-28T06:09:23;6.78;;;4.15;;
34902;SDS011;21114;44.840;0.214;2023-02-28T06:11:49;4.43;;;3.42;;
34902;SDS011;21114;44.840;0.214;2023-02-28T06:14:16;6.82;;;3.40;;
34902;SDS011;21114;44.840;0.214;2023-02-28T06:17:31;6.47;;;3.60;;
34902;SDS011;21114;44.840;0.214;2023-02-28T06:19:57;6.95;;;4.32;;
34902;SDS011;21114;44.840;0.214;2023-02-28T06:22:23;7.78;;;4.63;;
34902;SDS011;21114;44.840;0.214;2023-02-28T06:24:49;5.80;;;3.70;;
34902;SDS011;21114;44.840;0.214;2023-02-28T06:27:15;7.68;;;4.20;;
34902;SDS011;21114;44.840;0.214;2023-02-28T06:29:41;4.07;;;3.33;;
34902;SDS011;21114;44.840;0.214;2023-02-28T06:32:07;3.95;;;3.35;;
34902;SDS011;21114;44.840;0.214;2023-02-28T06:34:34;5.63;;;3.45;;
34902;SDS011;21114;44.840;0.214;2023-02-28T06:37:00;7.55;;;3.67;;
34902;SDS011;21114;44.840;0.214;2023-02-28T06:39:27;5.60;;;4.25;;
34902;SDS011;21114;44.840;0.214;2023-02-28T06:42:42;5.45;;;3.90;;
34902;SDS011;21114;44.840;0.214;2023-02-28T06:45:09;7.53;;;3.35;;
34902;SDS011;21114;44.840;0.214;2023-02-28T06:48:23;5.55;;;3.33;;
34902;SDS011;21114;44.840;0.214;2023-02-28T06:50:49;7.00;;;3.20;;
34902;SDS011;21114;44.840;0.214;2023-02-28T06:53:15;5.53;;;3.75;;
34902;SDS011;21114;44.840;0.214;2023-02-28T06:55:41;2.72;;;2.22;;
34902;SDS011;21114;44.840;0.214;2023-02-28T06:58:08;8.90;;;3.60;;
34902;SDS011;21114;44.840;0.214;2023-02-28T07:00:42;3.95;;;2.47;;
34902;SDS011;21114;44.840;0.214;2023-02-28T07:03:58;4.20;;;2.83;;
34902;SDS011;21114;44.840;0.214;2023-02-28T07:06:54;4.50;;;2.60;;
34902;SDS011;21114;44.840;0.214;2023-02-28T07:10:11;3.90;;;2.72;;
34902;SDS011;21114;44.840;0.214;2023-02-28T07:12:38;2.38;;;2.15;;
34902;SDS011;21114;44.840;0.214;2023-02-28T07:15:04;4.63;;;2.33;;
34902;SDS011;21114;44.840;0.214;2023-02-28T07:18:07;4.15;;;2.80;;
34902;SDS011;21114;44.840;0.214;2023-02-28T07:20:33;5.70;;;2.45;;
34902;SDS011;21114;44.840;0.214;2023-02-28T07:22:59;3.78;;;2.45;;
34902;SDS011;21114;44.840;0.214;2023-02-28T07:25:25;4.75;;;2.25;;
34902;SDS011;21114;44.840;0.214;2023-02-28T07:28:41;4.07;;;2.95;;
34902;SDS011;21114;44.840;0.214;2023-02-28T07:31:56;5.80;;;3.65;;
34902;SDS011;21114;44.840;0.214;2023-02-28T07:34:22;4.38;;;3.17;;
34902;SDS011;21114;44.840;0.214;2023-02-28T07:36:48;6.00;;;3.47;;
34902;SDS011;21114;44.840;0.214;2023-02-28T07:39:18;6.88;;;2.92;;
34902;SDS011;21114;44.840;0.214;2023-02-28T07:41:44;3.63;;;2.85;;
34902;SDS011;21114;44.840;0.214;2023-02-28T07:44:10;5.40;;;3.33;;
34902;SDS011;21114;44.840;0.214;2023-02-28T07:46:37;3.65;;;2.72;;
34902;SDS011;21114;44.840;0.214;2023-02-28T07:49:03;3.60;;;2.88;;
34902;SDS011;21114;44.840;0.214;2023-02-28T07:52:18;4.75;;;2.30;;
34902;SDS011;21114;44.840;0.214;2023-02-28T07:54:44;3.97;;;2.25;;
34902;SDS011;21114;44.840;0.214;2023-02-28T07:57:10;3.80;;;2.25;;
34902;SDS011;21114;44.840;0.214;2023-02-28T07:59:36;4.22;;;2.30;;
34902;SDS011;21114;44.840;0.214;2023-02-28T08:02:02;3.78;;;2.40;;
34902;SDS011;21114;44.840;0.214;2023-02-28T08:04:31;5.90;;;2.80;;
34902;SDS011;21114;44.840;0.214;2023-02-28T08:07:26;3.08;;;2.30;;
34902;SDS011;21114;44.840;0.214;2023-02-28T08:09:52;2.20;;;1.73;;
34902;SDS011;21114;44.840;0.214;2023-02-28T08:12:18;4.28;;;2.70;;
34902;SDS011;21114;44.840;0.214;2023-02-28T08:14:45;2.63;;;1.85;;
34902;SDS011;21114;44.840;0.214;2023-02-28T08:17:11;3.50;;;2.17;;
34902;SDS011;21114;44.840;0.214;2023-02-28T08:19:37;3.22;;;2.28;;
34902;SDS011;21114;44.840;0.214;2023-02-28T08:22:03;2.67;;;2.03;;
34902;SDS011;21114;44.840;0.214;2023-02-28T08:24:29;3.33;;;2.22;;
34902;SDS011;21114;44.840;0.214;2023-02-28T08:26:56;12.48;;;8.23;;
34902;SDS011;21114;44.840;0.214;2023-02-28T08:29:22;3.20;;;1.95;;
34902;SDS011;21114;44.840;0.214;2023-02-28T08:32:37;2.42;;;1.90;;
34902;SDS011;21114;44.840;0.214;2023-02-28T08:35:03;2.80;;;2.05;;
34902;SDS011;21114;44.840;0.214;2023-02-28T08:37:29;2.28;;;1.30;;
34902;SDS011;21114;44.840;0.214;2023-02-28T08:39:55;3.38;;;2.42;;
34902;SDS011;21114;44.840;0.214;2023-02-28T08:42:21;2.75;;;1.95;;
34902;SDS011;21114;44.840;0.214;2023-02-28T08:44:47;2.67;;;1.98;;
34902;SDS011;21114;44.840;0.214;2023-02-28T08:47:13;5.45;;;2.35;;
34902;SDS011;21114;44.840;0.214;2023-02-28T08:49:40;3.50;;;2.42;;
34902;SDS011;21114;44.840;0.214;2023-02-28T08:52:06;6.05;;;2.53;;
34902;SDS011;21114;44.840;0.214;2023-02-28T08:54:32;3.88;;;2.33;;
34902;SDS011;21114;44.840;0.214;2023-02-28T08:56:59;9.27;;;3.78;;
34902;SDS011;21114;44.840;0.214;2023-02-28T08:59:25;4.18;;;2.85;;
34902;SDS011;21114;44.840;0.214;2023-02-28T09:01:51;2.90;;;2.20;;
34902;SDS011;21114;44.840;0.214;2023-02-28T09:04:18;4.65;;;2.30;;
34902;SDS011;21114;44.840;0.214;2023-02-28T09:06:44;3.08;;;2.38;;
34902;SDS011;21114;44.840;0.214;2023-02-28T09:09:10;3.88;;;3.05;;
34902;SDS011;21114;44.840;0.214;2023-02-28T09:11:36;3.97;;;3.55;;
34902;SDS011;21114;44.840;0.214;2023-02-28T09:14:02;2.70;;;2.22;;
34902;SDS011;21114;44.840;0.214;2023-02-28T09:16:29;4.85;;;2.65;;
34902;SDS011;21114;44.840;0.214;2023-02-28T09:18:55;4.13;;;2.85;;
34902;SDS011;21114;44.840;0.214;2023-02-28T09:21:22;2.58;;;2.28;;
34902;SDS011;21114;44.840;0.214;2023-02-28T09:23:48;2.28;;;2.08;;
34902;SDS011;21114;44.840;0.214;2023-02-28T09:27:03;5.10;;;2.30;;
34902;SDS011;21114;44.840;0.214;2023-02-28T09:30:18;7.53;;;2.75;;
34902;SDS011;21114;44.840;0.214;2023-02-28T09:32:44;3.75;;;2.50;;
34902;SDS011;21114;44.840;0.214;2023-02-28T09:35:17;5.20;;;2.55;;
34902;SDS011;21114;44.840;0.214;2023-02-28T09:38:08;4.65;;;2.50;;
34902;SDS011;21114;44.840;0.214;2023-02-28T09:41:14;4.03;;;2.30;;
34902;SDS011;21114;44.840;0.214;2023-02-28T09:44:31;3.47;;;2.78;;
34902;SDS011;21114;44.840;0.214;2023-02-28T09:47:46;2.78;;;2.20;;
34902;SDS011;21114;44.840;0.214;2023-02-28T09:51:09;2.85;;;2.50;;
34902;SDS011;21114;44.840;0.214;2023-02-28T09:54:27;3.47;;;2.40;;
34902;SDS011;21114;44.840;0.214;2023-02-28T09:57:42;3.70;;;2.75;;
34902;SDS011;21114;44.840;0.214;2023-02-28T10:00:13;3.95;;;2.85;;
34902;SDS011;21114;44.840;0.214;2023-02-28T10:06:12;3.72;;;2.08;;
34902;SDS011;21114;44.840;0.214;2023-02-28T10:11:33;2.45;;;2.05;;
34902;SDS011;21114;44.840;0.214;2023-02-28T10:14:53;3.60;;;2.97;;
34902;SDS011;21114;44.840;0.214;2023-02-28T10:18:11;4.38;;;3.25;;
34902;SDS011;21114;44.840;0.214;2023-02-28T10:21:04;3.35;;;2.72;;
34902;SDS011;21114;44.840;0.214;2023-02-28T10:27:15;4.18;;;3.80;;
34902;SDS011;21114;44.840;0.214;2023-02-28T10:30:30;2.72;;;2.45;;
34902;SDS011;21114;44.840;0.214;2023-02-28T10:32:56;4.07;;;2.78;;
34902;SDS011;21114;44.840;0.214;2023-02-28T10:35:23;5.78;;;2.58;;
34902;SDS011;21114;44.840;0.214;2023-02-28T10:38:38;4.05;;;2.75;;
34902;SDS011;21114;44.840;0.214;2023-02-28T10:41:53;3.65;;;3.33;;
34902;SDS011;21114;44.840;0.214;2023-02-28T10:44:21;8.70;;;4.57;;
34902;SDS011;21114;44.840;0.214;2023-02-28T10:47:38;4.20;;;3.25;;
34902;SDS011;21114;44.840;0.214;2023-02-28T10:50:54;4.55;;;2.65;;
34902;SDS011;21114;44.840;0.214;2023-02-28T10:54:15;5.22;;;3.22;;
34902;SDS011;21114;44.840;0.214;2023-02-28T10:57:30;7.78;;;3.67;;
34902;SDS011;21114;44.840;0.214;2023-02-28T11:00:07;5.70;;;2.63;;
34902;SDS011;21114;44.840;0.214;2023-02-28T11:03:34;3.13;;;2.60;;
34902;SDS011;21114;44.840;0.214;2023-02-28T11:06:57;4.68;;;2.80;;
34902;SDS011;21114;44.840;0.214;2023-02-28T11:10:16;5.28;;;2.85;;
34902;SDS011;21114;44.840;0.214;2023-02-28T11:13:16;4.45;;;2.63;;
34902;SDS011;21114;44.840;0.214;2023-02-28T11:16:00;3.05;;;2.25;;
34902;SDS011;21114;44.840;0.214;2023-02-28T11:19:18;3.35;;;2.72;;
34902;SDS011;21114;44.840;0.214;2023-02-28T11:22:38;3.03;;;2.63;;
34902;SDS011;21114;44.840;0.214;2023-02-28T11:25:25;3.63;;;2.78;;
34902;SDS011;21114;44.840;0.214;2023-02-28T11:28:41;2.92;;;2.17;;
34902;SDS011;21114;44.840;0.214;2023-02-28T11:37:40;4.35;;;3.83;;
34902;SDS011;21114;44.840;0.214;2023-02-28T11:48:27;2.53;;;2.30;;
34902;SDS011;21114;44.840;0.214;2023-02-28T11:51:47;2.88;;;2.58;;
34902;SDS011;21114;44.840;0.214;2023-02-28T12:05:44;5.90;;;3.88;;
34902;SDS011;21114;44.840;0.214;2023-02-28T12:11:55;3.05;;;2.75;;
34902;SDS011;21114;44.840;0.214;2023-02-28T12:28:34;3.50;;;2.72;;
34902;SDS011;21114;44.840;0.214;2023-02-28T12:31:52;2.75;;;2.40;;
34902;SDS011;21114;44.840;0.214;2023-02-28T12:37:49;5.10;;;4.03;;
34902;SDS011;21114;44.840;0.214;2023-02-28T12:43:49;4.28;;;2.80;;
34902;SDS011;21114;44.840;0.214;2023-02-28T12:47:03;4.78;;;3.10;;
34902;SDS011;21114;44.840;0.214;2023-02-28T12:50:18;3.58;;;3.05;;
34902;SDS011;21114;44.840;0.214;2023-02-28T13:03:58;2.95;;;2.63;;
34902;SDS011;21114;44.840;0.214;2023-02-28T13:07:29;4.20;;;3.85;;
34902;SDS011;21114;44.840;0.214;2023-02-28T13:10:46;2.65;;;2.40;;
34902;SDS011;21114;44.840;0.214;2023-02-28T13:13:45;4.53;;;3.08;;
34902;SDS011;21114;44.840;0.214;2023-02-28T13:16:11;3.00;;;2.38;;
34902;SDS011;21114;44.840;0.214;2023-02-28T13:24:07;5.13;;;2.97;;
34902;SDS011;21114;44.840;0.214;2023-02-28T13:30:01;5.25;;;3.65;;
34902;SDS011;21114;44.840;0.214;2023-02-28T13:32:29;3.42;;;3.10;;
34902;SDS011;21114;44.840;0.214;2023-02-28T13:35:44;4.30;;;3.00;;
34902;SDS011;21114;44.840;0.214;2023-02-28T13:49:25;3.70;;;3.22;;
34902;SDS011;21114;44.840;0.214;2023-02-28T13:52:44;7.35;;;3.40;;
34902;SDS011;21114;44.840;0.214;2023-02-28T13:56:03;2.30;;;2.10;;
34902;SDS011;21114;44.840;0.214;2023-02-28T14:02:01;3.13;;;2.83;;
34902;SDS011;21114;44.840;0.214;2023-02-28T14:05:00;3.17;;;2.17;;
34902;SDS011;21114;44.840;0.214;2023-02-28T14:08:16;2.35;;;2.03;;
34902;SDS011;21114;44.840;0.214;2023-02-28T14:11:35;4.55;;;2.70;;
34902;SDS011;21114;44.840;0.214;2023-02-28T14:17:29;3.53;;;2.30;;
34902;SDS011;21114;44.840;0.214;2023-02-28T14:19:55;3.33;;;2.42;;
34902;SDS011;21114;44.840;0.214;2023-02-28T14:25:53;4.43;;;2.72;;
34902;SDS011;21114;44.840;0.214;2023-02-28T14:37:11;4.03;;;3.17;;
34902;SDS011;21114;44.840;0.214;2023-02-28T14:40:29;2.90;;;2.58;;
34902;SDS011;21114;44.840;0.214;2023-02-28T14:46:40;2.83;;;2.35;;
34902;SDS011;21114;44.840;0.214;2023-02-28T14:49:54;4.25;;;2.42;;
34902;SDS011;21114;44.840;0.214;2023-02-28T14:55:01;2.92;;;2.55;;
34902;SDS011;21114;44.840;0.214;2023-02-28T15:01:01;3.42;;;2.47;;
34902;SDS011;21114;44.840;0.214;2023-02-28T15:04:21;3.15;;;2.50;;
34902;SDS011;21114;44.840;0.214;2023-02-28T15:07:10;3.53;;;2.70;;
34902;SDS011;21114;44.840;0.214;2023-02-28T15:10:25;8.10;;;2.42;;
34902;SDS011;21114;44.840;0.214;2023-02-28T15:13:41;3.28;;;2.50;;
34902;SDS011;21114;44.840;0.214;2023-02-28T15:16:59;3.72;;;2.42;;
34902;SDS011;21114;44.840;0.214;2023-02-28T15:20:16;2.50;;;2.30;;
34902;SDS011;21114;44.840;0.214;2023-02-28T15:23:31;3.20;;;2.63;;
34902;SDS011;21114;44.840;0.214;2023-02-28T15:26:49;2.53;;;2.13;;
34902;SDS011;21114;44.840;0.214;2023-02-28T15:30:06;4.05;;;2.47;;
34902;SDS011;21114;44.840;0.214;2023-02-28T15:33:23;5.78;;;4.97;;
34902;SDS011;21114;44.840;0.214;2023-02-28T15:36:38;4.85;;;2.75;;
34902;SDS011;21114;44.840;0.214;2023-02-28T15:44:49;4.45;;;2.42;;
34902;SDS011;21114;44.840;0.214;2023-02-28T15:47:17;5.07;;;2.92;;
34902;SDS011;21114;44.840;0.214;2023-02-28T15:50:33;3.78;;;2.72;;
34902;SDS011;21114;44.840;0.214;2023-02-28T15:53:13;4.22;;;2.55;;
34902;SDS011;21114;44.840;0.214;2023-02-28T15:56:29;5.25;;;2.25;;
34902;SDS011;21114;44.840;0.214;2023-02-28T15:59:49;3.35;;;2.83;;
34902;SDS011;21114;44.840;0.214;2023-02-28T16:08:49;5.80;;;4.05;;
34902;SDS011;21114;44.840;0.214;2023-02-28T16:11:16;2.80;;;2.03;;
34902;SDS011;21114;44.840;0.214;2023-02-28T16:13:42;2.83;;;2.33;;
34902;SDS011;21114;44.840;0.214;2023-02-28T16:16:14;3.10;;;2.60;;
34902;SDS011;21114;44.840;0.214;2023-02-28T16:19:28;3.03;;;2.20;;
34902;SDS011;21114;44.840;0.214;2023-02-28T16:21:55;3.83;;;3.00;;
34902;SDS011;21114;44.840;0.214;2023-02-28T16:24:21;4.15;;;2.70;;
34902;SDS011;21114;44.840;0.214;2023-02-28T16:26:48;4.13;;;3.25;;
34902;SDS011;21114;44.840;0.214;2023-02-28T16:30:03;4.50;;;2.88;;
34902;SDS011;21114;44.840;0.214;2023-02-28T16:33:18;9.60;;;3.22;;
34902;SDS011;21114;44.840;0.214;2023-02-28T16:35:44;3.42;;;3.00;;
34902;SDS011;21114;44.840;0.214;2023-02-28T16:38:10;7.03;;;5.18;;
34902;SDS011;21114;44.840;0.214;2023-02-28T16:40:36;4.60;;;2.80;;
34902;SDS011;21114;44.840;0.214;2023-02-28T16:43:05;4.45;;;3.53;;
34902;SDS011;21114;44.840;0.214;2023-02-28T16:46:23;4.97;;;3.20;;
34902;SDS011;21114;44.840;0.214;2023-02-28T16:49:38;4.05;;;3.10;;
34902;SDS011;21114;44.840;0.214;2023-02-28T16:52:07;3.45;;;2.67;;
34902;SDS011;21114;44.840;0.214;2023-02-28T16:54:33;3.60;;;3.00;;
34902;SDS011;21114;44.840;0.214;2023-02-28T16:56:59;3.97;;;3.30;;
34902;SDS011;21114;44.840;0.214;2023-02-28T16:59:26;6.22;;;2.97;;
34902;SDS011;21114;44.840;0.214;2023-02-28T17:02:40;2.80;;;2.60;;
34902;SDS011;21114;44.840;0.214;2023-02-28T17:05:08;4.03;;;2.70;;
34902;SDS011;21114;44.840;0.214;2023-02-28T17:08:20;3.50;;;3.20;;
34902;SDS011;21114;44.840;0.214;2023-02-28T17:10:46;3.30;;;3.00;;
34902;SDS011;21114;44.840;0.214;2023-02-28T17:13:12;4.55;;;3.10;;
34902;SDS011;21114;44.840;0.214;2023-02-28T17:15:38;3.20;;;2.90;;
34902;SDS011;21114;44.840;0.214;2023-02-28T17:18:05;4.70;;;2.95;;
34902;SDS011;21114;44.840;0.214;2023-02-28T17:21:20;4.60;;;2.60;;
34902;SDS011;21114;44.840;0.214;2023-02-28T17:23:46;3.38;;;2.75;;
34902;SDS011;21114;44.840;0.214;2023-02-28T17:26:13;3.00;;;2.67;;
34902;SDS011;21114;44.840;0.214;2023-02-28T17:29:28;3.63;;;3.10;;
34902;SDS011;21114;44.840;0.214;2023-02-28T17:31:54;11.00;;;3.90;;
34902;SDS011;21114;44.840;0.214;2023-02-28T17:34:20;4.50;;;3.63;;
34902;SDS011;21114;44.840;0.214;2023-02-28T17:36:47;3.63;;;3.33;;
34902;SDS011;21114;44.840;0.214;2023-02-28T17:40:02;4.78;;;3.75;;
34902;SDS011;21114;44.840;0.214;2023-02-28T17:42:28;4.90;;;4.15;;
34902;SDS011;21114;44.840;0.214;2023-02-28T17:44:54;6.25;;;4.60;;
34902;SDS011;21114;44.840;0.214;2023-02-28T17:47:20;5.05;;;3.88;;
34902;SDS011;21114;44.840;0.214;2023-02-28T17:49:46;4.82;;;3.75;;
34902;SDS011;21114;44.840;0.214;2023-02-28T17:52:12;5.35;;;3.30;;
34902;SDS011;21114;44.840;0.214;2023-02-28T17:54:38;4.63;;;3.83;;
34902;SDS011;21114;44.840;0.214;2023-02-28T17:57:04;6.30;;;2.75;;
34902;SDS011;21114;44.840;0.214;2023-02-28T17:59:31;3.78;;;3.22;;
34902;SDS011;21114;44.840;0.214;2023-02-28T18:02:00;5.25;;;2.42;;
34902;SDS011;21114;44.840;0.214;2023-02-28T18:05:14;3.45;;;2.90;;
34902;SDS011;21114;44.840;0.214;2023-02-28T18:07:40;5.38;;;3.17;;
34902;SDS011;21114;44.840;0.214;2023-02-28T18:10:07;4.53;;;3.20;;
34902;SDS011;21114;44.840;0.214;2023-02-28T18:13:25;6.57;;;3.80;;
34902;SDS011;21114;44.840;0.214;2023-02-28T18:15:53;6.78;;;4.53;;
34902;SDS011;21114;44.840;0.214;2023-02-28T18:18:19;5.10;;;3.70;;
34902;SDS011;21114;44.840;0.214;2023-02-28T18:20:45;4.80;;;3.95;;
34902;SDS011;21114;44.840;0.214;2023-02-28T18:23:14;4.88;;;3.70;;
34902;SDS011;21114;44.840;0.214;2023-02-28T18:25:42;4.90;;;3.13;;
34902;SDS011;21114;44.840;0.214;2023-02-28T18:28:08;4.72;;;4.22;;
34902;SDS011;21114;44.840;0.214;2023-02-28T18:30:35;3.90;;;3.40;;
34902;SDS011;21114;44.840;0.214;2023-02-28T18:33:50;4.32;;;3.53;;
34902;SDS011;21114;44.840;0.214;2023-02-28T18:37:05;3.72;;;3.30;;
34902;SDS011;21114;44.840;0.214;2023-02-28T18:39:31;4.88;;;3.70;;
34902;SDS011;21114;44.840;0.214;2023-02-28T18:41:57;5.00;;;3.15;;
34902;SDS011;21114;44.840;0.214;2023-02-28T18:44:23;4.93;;;3.70;;
34902;SDS011;21114;44.840;0.214;2023-02-28T18:46:49;5.65;;;3.58;;
34902;SDS011;21114;44.840;0.214;2023-02-28T18:49:16;4.65;;;4.13;;
34902;SDS011;21114;44.840;0.214;2023-02-28T18:52:31;4.60;;;3.72;;
34902;SDS011;21114;44.840;0.214;2023-02-28T18:54:57;4.63;;;3.58;;
34902;SDS011;21114;44.840;0.214;2023-02-28T18:57:23;6.15;;;4.20;;
34902;SDS011;21114;44.840;0.214;2023-02-28T18:59:49;4.38;;;3.67;;
34902;SDS011;21114;44.840;0.214;2023-02-28T19:02:15;4.68;;;3.83;;
34902;SDS011;21114;44.840;0.214;2023-02-28T19:04:41;6.10;;;3.40;;
34902;SDS011;21114;44.840;0.214;2023-02-28T19:07:07;4.60;;;3.42;;